sensor_id;sensor_type;location;lat;lon;timestamp;pressure;altitude;pressure_sealevel;temperature;humidity
73651;BME280;61944;52.538;6.108;2023-02-01T00:01:35;101698.34;;;5.02;100.00
73651;BME280;61944;52.538;6.108;2023-02-01T00:04:00;101694.41;;;5.03;100.00
73651;BME280;61944;52.538;6.108;2023-02-01T00:06:25;101695.56;;;5.02;100.00
73651;BME280;61944;52.538;6.108;2023-02-01T00:08:54;101694.38;;;4.95;100.00
73651;BME280;61944;52.538;6.108;2023-02-01T00:11:20;101692.94;;;4.97;100.00
73651;BME280;61944;52.538;6.108;2023-02-01T00:13:46;101687.44;;;5.06;100.00
73651;BME280;61944;52.538;6.108;2023-02-01T00:16:17;101693.16;;;5.09;100.00
73651;BME280;61944;52.538;6.108;2023-02-01T00:18:44;101695.41;;;5.07;100.00
73651;BME280;61944;52.538;6.108;2023-02-01T00:21:28;101689.38;;;5.05;100.00
73651;BME280;61944;52.538;6.108;2023-02-01T00:23:53;101686.97;;;5.13;100.00
73651;BME280;61944;52.538;6.108;2023-02-01T00:28:47;101688.91;;;5.12;100.00
73651;BME280;61944;52.538;6.108;2023-02-01T00:31:13;101686.31;;;5.16;100.00
73651;BME280;61944;52.538;6.108;2023-02-01T00:33:38;101680.56;;;5.12;100.00
73651;BME280;61944;52.538;6.108;2023-02-01T00:36:06;101689.28;;;5.19;100.00
73651;BME280;61944;52.538;6.108;2023-02-01T00:38:33;101690.41;;;5.18;100.00
73651;BME280;61944;52.538;6.108;2023-02-01T00:41:07;101699.56;;;5.19;100.00
73651;BME280;61944;52.538;6.108;2023-02-01T00:43:33;101693.16;;;5.18;100.00
73651;BME280;61944;52.538;6.108;2023-02-01T00:46:00;101701.19;;;5.20;100.00
73651;BME280;61944;52.538;6.108;2023-02-01T00:48:26;101695.31;;;5.21;100.00
73651;BME280;61944;52.538;6.108;2023-02-01T00:50:51;101694.81;;;5.19;100.00
73651;BME280;61944;52.538;6.108;2023-02-01T00:53:17;101704.28;;;5.18;100.00
73651;BME280;61944;52.538;6.108;2023-02-01T00:55:47;101705.63;;;5.21;100.00
73651;BME280;61944;52.538;6.108;2023-02-01T00:58:13;101695.31;;;5.21;100.00
73651;BME280;61944;52.538;6.108;2023-02-01T01:00:38;101683.91;;;5.23;100.00
73651;BME280;61944;52.538;6.108;2023-02-01T01:03:04;101684.41;;;5.25;100.00
73651;BME280;61944;52.538;6.108;2023-02-01T01:05:47;101674.91;;;5.26;100.00
73651;BME280;61944;52.538;6.108;2023-02-01T01:08:14;101669.38;;;5.26;100.00
73651;BME280;61944;52.538;6.108;2023-02-01T01:10:39;101665.94;;;5.29;100.00
73651;BME280;61944;52.538;6.108;2023-02-01T01:13:05;101655.81;;;5.33;100.00
73651;BME280;61944;52.538;6.108;2023-02-01T01:15:30;101652.41;;;5.36;100.00
73651;BME280;61944;52.538;6.108;2023-02-01T01:17:56;101653.88;;;5.34;100.00
73651;BME280;61944;52.538;6.108;2023-02-01T01:20:21;101652.09;;;5.38;100.00
73651;BME280;61944;52.538;6.108;2023-02-01T01:22:47;101642.63;;;5.39;100.00
73651;BME280;61944;52.538;6.108;2023-02-01T01:25:13;101639.34;;;5.37;100.00
73651;BME280;61944;52.538;6.108;2023-02-01T01:27:39;101632.97;;;5.36;100.00
73651;BME280;61944;52.538;6.108;2023-02-01T01:30:05;101638.06;;;5.43;100.00
73651;BME280;61944;52.538;6.108;2023-02-01T01:32:31;101633.47;;;5.38;100.00
73651;BME280;61944;52.538;6.108;2023-02-01T01:34:56;101640.66;;;5.39;100.00
73651;BME280;61944;52.538;6.108;2023-02-01T01:37:21;101635.75;;;5.36;100.00
73651;BME280;61944;52.538;6.108;2023-02-01T01:39:47;101634.47;;;5.42;100.00
73651;BME280;61944;52.538;6.108;2023-02-01T01:42:12;101643.41;;;5.39;100.00
73651;BME280;61944;52.538;6.108;2023-02-01T01:45:00;101648.34;;;5.42;100.00
73651;BME280;61944;52.538;6.108;2023-02-01T01:47:47;101648.34;;;5.42;100.00
73651;BME280;61944;52.538;6.108;2023-02-01T01:50:16;101648.84;;;5.44;100.00
73651;BME280;61944;52.538;6.108;2023-02-01T01:52:44;101638.53;;;5.45;100.00
73651;BME280;61944;52.538;6.108;2023-02-01T01:55:13;101642.94;;;5.46;100.00
73651;BME280;61944;52.538;6.108;2023-02-01T01:57:42;101632.66;;;5.46;100.00
73651;BME280;61944;52.538;6.108;2023-02-01T02:00:14;101622.56;;;5.50;100.00
73651;BME280;61944;52.538;6.108;2023-02-01T02:02:43;101614.38;;;5.45;100.00
73651;BME280;61944;52.538;6.108;2023-02-01T02:05:10;101615.22;;;5.55;100.00
73651;BME280;61944;52.538;6.108;2023-02-01T02:07:37;101617.31;;;5.58;100.00
73651;BME280;61944;52.538;6.108;2023-02-01T02:10:07;101616.19;;;5.59;100.00
73651;BME280;61944;52.538;6.108;2023-02-01T02:12:38;101601.97;;;5.60;100.00
73651;BME280;61944;52.538;6.108;2023-02-01T02:15:04;101604.41;;;5.62;100.00
73651;BME280;61944;52.538;6.108;2023-02-01T02:20:27;101604.41;;;5.62;100.00
73651;BME280;61944;52.538;6.108;2023-02-01T02:31:07;101592.63;;;5.65;100.00
73651;BME280;61944;52.538;6.108;2023-02-01T02:37:04;101573.06;;;5.70;100.00
73651;BME280;61944;52.538;6.108;2023-02-01T02:39:59;101581.88;;;5.72;100.00
73651;BME280;61944;52.538;6.108;2023-02-01T02:42:53;101565.69;;;5.65;100.00
73651;BME280;61944;52.538;6.108;2023-02-01T02:45:50;101568.97;;;5.67;100.00
73651;BME280;61944;52.538;6.108;2023-02-01T02:49:15;101545.41;;;5.65;100.00
73651;BME280;61944;52.538;6.108;2023-02-01T02:51:47;101552.13;;;5.64;100.00
73651;BME280;61944;52.538;6.108;2023-02-01T02:54:36;101555.41;;;5.66;100.00
73651;BME280;61944;52.538;6.108;2023-02-01T02:57:34;101544.28;;;5.66;100.00
73651;BME280;61944;52.538;6.108;2023-02-01T03:00:24;101547.56;;;5.68;100.00
73651;BME280;61944;52.538;6.108;2023-02-01T03:03:11;101544.78;;;5.68;100.00
73651;BME280;61944;52.538;6.108;2023-02-01T03:05:55;101552.94;;;5.73;100.00
73651;BME280;61944;52.538;6.108;2023-02-01T03:08:26;101537.44;;;5.72;100.00
73651;BME280;61944;52.538;6.108;2023-02-01T03:11:00;101536.63;;;5.72;100.00
73651;BME280;61944;52.538;6.108;2023-02-01T03:21:31;101541.19;;;5.76;100.00
73651;BME280;61944;52.538;6.108;2023-02-01T03:24:01;101540.69;;;5.74;100.00
73651;BME280;61944;52.538;6.108;2023-02-01T03:26:31;101536.75;;;5.75;100.00
73651;BME280;61944;52.538;6.108;2023-02-01T03:29:05;101548.34;;;5.77;100.00
73651;BME280;61944;52.538;6.108;2023-02-01T03:31:32;101541.81;;;5.73;100.00
73651;BME280;61944;52.538;6.108;2023-02-01T03:33:58;101552.78;;;5.78;100.00
73651;BME280;61944;52.538;6.108;2023-02-01T03:36:25;101535.13;;;5.74;100.00
73651;BME280;61944;52.538;6.108;2023-02-01T03:41:44;101536.25;;;5.82;100.00
73651;BME280;61944;52.538;6.108;2023-02-01T03:44:20;101532.81;;;5.85;100.00
73651;BME280;61944;52.538;6.108;2023-02-01T03:49:34;101535.28;;;5.86;100.00
73651;BME280;61944;52.538;6.108;2023-02-01T03:52:02;101538.69;;;5.83;100.00
73651;BME280;61944;52.538;6.108;2023-02-01T03:54:29;101548.19;;;5.91;100.00
73651;BME280;61944;52.538;6.108;2023-02-01T03:56:58;101530.06;;;5.85;100.00
73651;BME280;61944;52.538;6.108;2023-02-01T03:59:24;101541.31;;;5.88;100.00
73651;BME280;61944;52.538;6.108;2023-02-01T04:01:50;101542.47;;;5.87;100.00
73651;BME280;61944;52.538;6.108;2023-02-01T04:04:16;101536.75;;;5.93;100.00
73651;BME280;61944;52.538;6.108;2023-02-01T04:06:46;101545.59;;;5.95;100.00
73651;BME280;61944;52.538;6.108;2023-02-01T04:09:11;101531.34;;;5.96;100.00
73651;BME280;61944;52.538;6.108;2023-02-01T04:11:37;101528.41;;;5.93;100.00
73651;BME280;61944;52.538;6.108;2023-02-01T04:14:02;101541.31;;;5.88;100.00
73651;BME280;61944;52.538;6.108;2023-02-01T04:16:33;101525.94;;;5.91;100.00
73651;BME280;61944;52.538;6.108;2023-02-01T04:18:58;101536.25;;;5.90;100.00
73651;BME280;61944;52.538;6.108;2023-02-01T04:21:25;101530.34;;;5.92;100.00
73651;BME280;61944;52.538;6.108;2023-02-01T04:23:51;101549.34;;;5.99;100.00
73651;BME280;61944;52.538;6.108;2023-02-01T04:26:16;101543.91;;;5.94;100.00
73651;BME280;61944;52.538;6.108;2023-02-01T04:28:42;101535.28;;;5.95;100.00
73651;BME280;61944;52.538;6.108;2023-02-01T04:31:07;101542.31;;;5.93;100.00
73651;BME280;61944;52.538;6.108;2023-02-01T04:33:33;101548.19;;;6.00;100.00
73651;BME280;61944;52.538;6.108;2023-02-01T04:35:58;101536.75;;;5.93;100.00
73651;BME280;61944;52.538;6.108;2023-02-01T04:38:24;101529.06;;;5.89;100.00
73651;BME280;61944;52.538;6.108;2023-02-01T04:40:49;101539.53;;;5.93;100.00
73651;BME280;61944;52.538;6.108;2023-02-01T04:43:16;101542.31;;;5.93;100.00
73651;BME280;61944;52.538;6.108;2023-02-01T04:45:41;101524.66;;;5.88;100.00
73651;BME280;61944;52.538;6.108;2023-02-01T04:48:06;101521.19;;;5.91;100.00
73651;BME280;61944;52.538;6.108;2023-02-01T04:50:32;101527.94;;;5.90;100.00
73651;BME280;61944;52.538;6.108;2023-02-01T04:52:57;101533.00;;;5.88;100.00
73651;BME280;61944;52.538;6.108;2023-02-01T04:55:22;101523.00;;;5.87;100.00
73651;BME280;61944;52.538;6.108;2023-02-01T04:57:48;101522.84;;;5.84;100.00
73651;BME280;61944;52.538;6.108;2023-02-01T05:00:13;101533.63;;;5.85;100.00
73651;BME280;61944;52.538;6.108;2023-02-01T05:02:39;101524.31;;;5.81;100.00
73651;BME280;61944;52.538;6.108;2023-02-01T05:05:05;101525.13;;;5.82;100.00
73651;BME280;61944;52.538;6.108;2023-02-01T05:07:30;101506.03;;;5.80;100.00
73651;BME280;61944;52.538;6.108;2023-02-01T05:09:55;101494.44;;;5.78;100.00
73651;BME280;61944;52.538;6.108;2023-02-01T05:12:21;101501.81;;;5.74;100.00
73651;BME280;61944;52.538;6.108;2023-02-01T05:15:05;101511.44;;;5.77;100.00
73651;BME280;61944;52.538;6.108;2023-02-01T05:17:31;101501.13;;;5.77;100.00
73651;BME280;61944;52.538;6.108;2023-02-01T05:19:56;101507.53;;;5.78;100.00
73651;BME280;61944;52.538;6.108;2023-02-01T05:22:22;101518.63;;;5.78;100.00
73651;BME280;61944;52.538;6.108;2023-02-01T05:24:47;101499.50;;;5.76;100.00
73651;BME280;61944;52.538;6.108;2023-02-01T05:27:12;101506.38;;;5.79;100.00
73651;BME280;61944;52.538;6.108;2023-02-01T05:29:38;101518.63;;;5.78;100.00
73651;BME280;61944;52.538;6.108;2023-02-01T05:32:03;101512.91;;;5.74;100.00
73651;BME280;61944;52.538;6.108;2023-02-01T05:34:29;101521.91;;;5.80;100.00
73651;BME280;61944;52.538;6.108;2023-02-01T05:36:54;101518.78;;;5.81;100.00
73651;BME280;61944;52.538;6.108;2023-02-01T05:39:20;101514.03;;;5.82;100.00
73651;BME280;61944;52.538;6.108;2023-02-01T05:41:45;101508.00;;;5.80;100.00
73651;BME280;61944;52.538;6.108;2023-02-01T05:44:11;101529.88;;;5.81;100.00
73651;BME280;61944;52.538;6.108;2023-02-01T05:46:36;101521.06;;;5.79;100.00
73651;BME280;61944;52.538;6.108;2023-02-01T05:49:03;101516.16;;;5.85;100.00
73651;BME280;61944;52.538;6.108;2023-02-01T05:51:29;101518.13;;;5.84;100.00
73651;BME280;61944;52.538;6.108;2023-02-01T05:53:54;101528.09;;;5.85;100.00
73651;BME280;61944;52.538;6.108;2023-02-01T05:56:19;101525.50;;;5.80;100.00
73651;BME280;61944;52.538;6.108;2023-02-01T05:58:45;101520.41;;;5.82;100.00
73651;BME280;61944;52.538;6.108;2023-02-01T06:01:10;101518.13;;;5.84;100.00
73651;BME280;61944;52.538;6.108;2023-02-01T06:03:35;101517.44;;;5.87;100.00
73651;BME280;61944;52.538;6.108;2023-02-01T06:06:01;101518.13;;;5.84;100.00
73651;BME280;61944;52.538;6.108;2023-02-01T06:08:27;101532.03;;;5.84;100.00
73651;BME280;61944;52.538;6.108;2023-02-01T06:11:03;101528.72;;;5.91;100.00
73651;BME280;61944;52.538;6.108;2023-02-01T06:13:29;101533.47;;;5.90;100.00
73651;BME280;61944;52.538;6.108;2023-02-01T06:15:55;101538.56;;;5.88;100.00
73651;BME280;61944;52.538;6.108;2023-02-01T06:18:22;101525.63;;;5.93;100.00
73651;BME280;61944;52.538;6.108;2023-02-01T06:20:55;101530.69;;;5.90;100.00
73651;BME280;61944;52.538;6.108;2023-02-01T06:23:20;101539.16;;;5.94;100.00
73651;BME280;61944;52.538;6.108;2023-02-01T06:25:49;101534.13;;;5.87;100.00
73651;BME280;61944;52.538;6.108;2023-02-01T06:28:15;101531.19;;;5.93;100.00
73651;BME280;61944;52.538;6.108;2023-02-01T06:30:40;101534.78;;;5.93;100.00
73651;BME280;61944;52.538;6.108;2023-02-01T06:33:08;101536.75;;;5.93;100.00
73651;BME280;61944;52.538;6.108;2023-02-01T06:35:33;101535.09;;;5.91;100.00
73651;BME280;61944;52.538;6.108;2023-02-01T06:37:59;101537.56;;;5.93;100.00
73651;BME280;61944;52.538;6.108;2023-02-01T06:40:24;101540.66;;;5.91;100.00
73651;BME280;61944;52.538;6.108;2023-02-01T06:42:50;101562.28;;;5.95;100.00
73651;BME280;61944;52.538;6.108;2023-02-01T06:45:16;101557.00;;;6.02;100.00
73651;BME280;61944;52.538;6.108;2023-02-01T06:47:41;101549.69;;;5.97;100.00
73651;BME280;61944;52.538;6.108;2023-02-01T06:50:07;101557.69;;;5.99;100.00
73651;BME280;61944;52.538;6.108;2023-02-01T06:52:33;101550.16;;;5.99;100.00
73651;BME280;61944;52.538;6.108;2023-02-01T06:54:58;101552.78;;;5.96;100.00
73651;BME280;61944;52.538;6.108;2023-02-01T06:57:24;101552.13;;;5.99;100.00
73651;BME280;61944;52.538;6.108;2023-02-01T06:59:50;101553.75;;;6.00;100.00
73651;BME280;61944;52.538;6.108;2023-02-01T07:02:15;101565.84;;;5.95;100.00
73651;BME280;61944;52.538;6.108;2023-02-01T07:04:41;101552.78;;;5.96;100.00
73651;BME280;61944;52.538;6.108;2023-02-01T07:07:06;101546.41;;;5.95;100.00
73651;BME280;61944;52.538;6.108;2023-02-01T07:09:31;101568.94;;;5.94;100.00
73651;BME280;61944;52.538;6.108;2023-02-01T07:11:57;101558.63;;;5.94;100.00
73651;BME280;61944;52.538;6.108;2023-02-01T07:14:22;101565.78;;;6.21;100.00
73651;BME280;61944;52.538;6.108;2023-02-01T07:16:47;101568.78;;;6.07;100.00
73651;BME280;61944;52.538;6.108;2023-02-01T07:19:13;101575.50;;;5.98;100.00
73651;BME280;61944;52.538;6.108;2023-02-01T07:21:38;101569.94;;;5.98;100.00
73651;BME280;61944;52.538;6.108;2023-02-01T07:24:04;101569.94;;;5.98;100.00
73651;BME280;61944;52.538;6.108;2023-02-01T07:26:29;101564.53;;;5.93;100.00
73651;BME280;61944;52.538;6.108;2023-02-01T07:28:55;101567.31;;;5.93;100.00
73651;BME280;61944;52.538;6.108;2023-02-01T07:31:21;101580.72;;;5.90;100.00
73651;BME280;61944;52.538;6.108;2023-02-01T07:33:50;101579.56;;;5.91;100.00
73651;BME280;61944;52.538;6.108;2023-02-01T07:36:17;101577.44;;;5.88;100.00
73651;BME280;61944;52.538;6.108;2023-02-01T07:38:43;101566.50;;;5.83;100.00
73651;BME280;61944;52.538;6.108;2023-02-01T07:41:09;101569.59;;;5.82;100.00
73651;BME280;61944;52.538;6.108;2023-02-01T07:43:35;101573.69;;;5.84;100.00
73651;BME280;61944;52.538;6.108;2023-02-01T07:46:02;101564.53;;;5.75;100.00
73651;BME280;61944;52.538;6.108;2023-02-01T07:48:28;101568.78;;;5.81;100.00
73651;BME280;61944;52.538;6.108;2023-02-01T07:51:14;101553.91;;;5.77;100.00
73651;BME280;61944;52.538;6.108;2023-02-01T07:53:41;101552.31;;;5.67;100.00
73651;BME280;61944;52.538;6.108;2023-02-01T07:56:17;101560.13;;;5.74;100.00
73651;BME280;61944;52.538;6.108;2023-02-01T07:58:50;101556.69;;;5.68;100.00
73651;BME280;61944;52.538;6.108;2023-02-01T08:01:21;101565.19;;;5.72;100.00
73651;BME280;61944;52.538;6.108;2023-02-01T08:03:54;101561.63;;;5.72;100.00
73651;BME280;61944;52.538;6.108;2023-02-01T08:06:21;101562.09;;;5.65;100.00
73651;BME280;61944;52.538;6.108;2023-02-01T08:08:47;101569.09;;;5.71;100.00
73651;BME280;61944;52.538;6.108;2023-02-01T08:11:14;101576.47;;;5.67;100.00
73651;BME280;61944;52.538;6.108;2023-02-01T08:13:39;101578.94;;;5.60;100.00
73651;BME280;61944;52.538;6.108;2023-02-01T08:16:07;101573.69;;;5.67;100.00
73651;BME280;61944;52.538;6.108;2023-02-01T08:18:34;101592.16;;;5.72;100.00
73651;BME280;61944;52.538;6.108;2023-02-01T08:21:20;101584.47;;;5.77;100.00
73651;BME280;61944;52.538;6.108;2023-02-01T08:23:47;101574.34;;;5.81;100.00
73651;BME280;61944;52.538;6.108;2023-02-01T08:26:20;101576.97;;;5.86;100.00
73651;BME280;61944;52.538;6.108;2023-02-01T08:28:57;101579.06;;;5.89;100.00
73651;BME280;61944;52.538;6.108;2023-02-01T08:31:24;101560.94;;;5.83;100.00
73651;BME280;61944;52.538;6.108;2023-02-01T08:33:54;101570.56;;;5.86;100.00
73651;BME280;61944;52.538;6.108;2023-02-01T08:36:20;101567.47;;;5.87;100.00
73651;BME280;61944;52.538;6.108;2023-02-01T08:38:46;101573.84;;;5.88;100.00
73651;BME280;61944;52.538;6.108;2023-02-01T08:41:20;101572.38;;;5.90;100.00
73651;BME280;61944;52.538;6.108;2023-02-01T08:43:46;101567.16;;;5.89;100.00
73651;BME280;61944;52.538;6.108;2023-02-01T08:46:13;101558.13;;;5.92;100.00
73651;BME280;61944;52.538;6.108;2023-02-01T08:48:39;101572.22;;;5.96;100.00
73651;BME280;61944;52.538;6.108;2023-02-01T08:51:09;101563.56;;;5.97;100.00
73651;BME280;61944;52.538;6.108;2023-02-01T08:53:36;101553.06;;;5.94;100.00
73651;BME280;61944;52.538;6.108;2023-02-01T08:56:03;101558.34;;;5.96;100.00
73651;BME280;61944;52.538;6.108;2023-02-01T08:58:29;101543.31;;;5.97;100.00
73651;BME280;61944;52.538;6.108;2023-02-01T09:00:54;101543.31;;;5.97;100.00
73651;BME280;61944;52.538;6.108;2023-02-01T09:03:20;101548.19;;;6.00;100.00
73651;BME280;61944;52.538;6.108;2023-02-01T09:05:45;101537.88;;;6.00;100.00
73651;BME280;61944;52.538;6.108;2023-02-01T09:08:11;101558.00;;;6.06;100.00
73651;BME280;61944;52.538;6.108;2023-02-01T09:10:41;101549.16;;;6.04;100.00
73651;BME280;61944;52.538;6.108;2023-02-01T09:13:07;101538.69;;;6.01;100.00
73651;BME280;61944;52.538;6.108;2023-02-01T09:15:33;101544.25;;;6.01;100.00
73651;BME280;61944;52.538;6.108;2023-02-01T09:17:59;101535.75;;;6.06;100.00
73651;BME280;61944;52.538;6.108;2023-02-01T09:20:24;101545.22;;;6.05;100.00
73651;BME280;61944;52.538;6.108;2023-02-01T09:22:54;101545.91;;;6.02;100.00
73651;BME280;61944;52.538;6.108;2023-02-01T09:25:20;101532.97;;;6.06;100.00
73651;BME280;61944;52.538;6.108;2023-02-01T09:27:45;101531.00;;;6.06;100.00
73651;BME280;61944;52.538;6.108;2023-02-01T09:30:11;101535.28;;;6.04;100.00
73651;BME280;61944;52.538;6.108;2023-02-01T09:32:37;101528.91;;;6.03;100.00
73651;BME280;61944;52.538;6.108;2023-02-01T09:35:02;101535.44;;;6.07;100.00
73651;BME280;61944;52.538;6.108;2023-02-01T09:37:28;101519.88;;;6.06;100.00
73651;BME280;61944;52.538;6.108;2023-02-01T09:39:53;101515.97;;;6.07;100.00
73651;BME280;61944;52.538;6.108;2023-02-01T09:47:47;101496.00;;;6.14;100.00
73651;BME280;61944;52.538;6.108;2023-02-01T09:50:18;101491.56;;;6.13;100.00
73651;BME280;61944;52.538;6.108;2023-02-01T09:55:32;101503.66;;;6.17;100.00
73651;BME280;61944;52.538;6.108;2023-02-01T10:00:54;101503.53;;;6.05;100.00
73651;BME280;61944;52.538;6.108;2023-02-01T10:03:21;101509.59;;;6.07;100.00
73651;BME280;61944;52.538;6.108;2023-02-01T10:08:26;101510.28;;;5.86;100.00
73651;BME280;61944;52.538;6.108;2023-02-01T10:11:02;101500.47;;;5.80;100.00
73651;BME280;61944;52.538;6.108;2023-02-01T10:13:57;101489.84;;;5.82;100.00
73651;BME280;61944;52.538;6.108;2023-02-01T10:22:07;101500.31;;;5.77;100.00
73651;BME280;61944;52.538;6.108;2023-02-01T10:24:38;101497.22;;;5.78;100.00
73651;BME280;61944;52.538;6.108;2023-02-01T10:27:20;101509.31;;;5.82;100.00
73651;BME280;61944;52.538;6.108;2023-02-01T10:29:59;101508.16;;;5.75;100.00
73651;BME280;61944;52.538;6.108;2023-02-01T10:32:32;101510.63;;;5.76;100.00
73651;BME280;61944;52.538;6.108;2023-02-01T10:35:04;101509.13;;;5.79;100.00
73651;BME280;61944;52.538;6.108;2023-02-01T10:37:34;101529.59;;;5.74;100.00
73651;BME280;61944;52.538;6.108;2023-02-01T10:40:10;101523.22;;;5.74;100.00
73651;BME280;61944;52.538;6.108;2023-02-01T10:42:38;101520.44;;;5.74;100.00
73651;BME280;61944;52.538;6.108;2023-02-01T10:45:05;101508.81;;;5.80;100.00
73651;BME280;61944;52.538;6.108;2023-02-01T10:47:34;101491.50;;;5.75;100.00
73651;BME280;61944;52.538;6.108;2023-02-01T10:53:11;101506.38;;;5.79;100.00
73651;BME280;61944;52.538;6.108;2023-02-01T10:55:50;101473.06;;;5.70;100.00
73651;BME280;61944;52.538;6.108;2023-02-01T10:58:28;101493.47;;;5.74;100.00
73651;BME280;61944;52.538;6.108;2023-02-01T11:01:08;101492.00;;;5.77;100.00
73651;BME280;61944;52.538;6.108;2023-02-01T11:03:42;101494.94;;;5.80;100.00
73651;BME280;61944;52.538;6.108;2023-02-01T11:06:26;101482.66;;;5.81;100.00
73651;BME280;61944;52.538;6.108;2023-02-01T11:08:57;101493.78;;;5.81;100.00
73651;BME280;61944;52.538;6.108;2023-02-01T11:11:24;101485.44;;;5.81;100.00
73651;BME280;61944;52.538;6.108;2023-02-01T11:16:57;101486.09;;;5.78;100.00
73651;BME280;61944;52.538;6.108;2023-02-01T11:19:26;101466.66;;;5.78;100.00
73651;BME280;61944;52.538;6.108;2023-02-01T11:21:54;101472.72;;;5.80;100.00
73651;BME280;61944;52.538;6.108;2023-02-01T11:26:46;101472.50;;;5.85;100.00
73651;BME280;61944;52.538;6.108;2023-02-01T11:29:14;101471.88;;;5.88;100.00
73651;BME280;61944;52.538;6.108;2023-02-01T11:31:44;101466.44;;;5.92;100.00
73651;BME280;61944;52.538;6.108;2023-02-01T11:34:22;101456.69;;;5.95;100.00
73651;BME280;61944;52.538;6.108;2023-02-01T11:36:50;101449.31;;;5.99;100.00
73651;BME280;61944;52.538;6.108;2023-02-01T11:39:25;101453.03;;;6.03;100.00
73651;BME280;61944;52.538;6.108;2023-02-01T11:46:55;101448.38;;;6.24;100.00
73651;BME280;61944;52.538;6.108;2023-02-01T11:49:37;101447.69;;;6.27;100.00
73651;BME280;61944;52.538;6.108;2023-02-01T11:52:23;101453.09;;;6.33;100.00
73651;BME280;61944;52.538;6.108;2023-02-01T12:03:25;101454.22;;;6.31;100.00
73651;BME280;61944;52.538;6.108;2023-02-01T12:06:03;101446.41;;;6.25;100.00
73651;BME280;61944;52.538;6.108;2023-02-01T12:11:48;101442.81;;;6.24;100.00
73651;BME280;61944;52.538;6.108;2023-02-01T12:26:01;101417.97;;;6.19;100.00
73651;BME280;61944;52.538;6.108;2023-02-01T12:42:41;101454.47;;;6.18;100.00
73651;BME280;61944;52.538;6.108;2023-02-01T12:47:56;101432.22;;;6.18;100.00
73651;BME280;61944;52.538;6.108;2023-02-01T12:50:37;101441.69;;;6.17;100.00
73651;BME280;61944;52.538;6.108;2023-02-01T12:53:14;101425.31;;;6.24;100.00
73651;BME280;61944;52.538;6.108;2023-02-01T12:55:57;101448.34;;;6.33;100.00
73651;BME280;61944;52.538;6.108;2023-02-01T12:58:40;101451.44;;;6.31;100.00
73651;BME280;61944;52.538;6.108;2023-02-01T13:01:12;101438.50;;;6.36;100.00
73651;BME280;61944;52.538;6.108;2023-02-01T13:06:34;101458.59;;;6.41;100.00
73651;BME280;61944;52.538;6.108;2023-02-01T13:11:58;101452.88;;;6.38;100.00
73651;BME280;61944;52.538;6.108;2023-02-01T13:14:38;101459.06;;;6.73;100.00
73651;BME280;61944;52.538;6.108;2023-02-01T13:17:22;101444.81;;;6.45;100.00
73651;BME280;61944;52.538;6.108;2023-02-01T13:22:51;101468.38;;;6.47;100.00
73651;BME280;61944;52.538;6.108;2023-02-01T13:27:55;101470.97;;;6.53;100.00
73651;BME280;61944;52.538;6.108;2023-02-01T13:30:32;101467.84;;;6.54;100.00
73651;BME280;61944;52.538;6.108;2023-02-01T13:43:57;101475.03;;;6.55;100.00
73651;BME280;61944;52.538;6.108;2023-02-01T13:46:23;101479.94;;;6.58;100.00
73651;BME280;61944;52.538;6.108;2023-02-01T13:49:01;101474.38;;;6.58;100.00
73651;BME280;61944;52.538;6.108;2023-02-01T13:51:43;101480.91;;;6.62;100.00
73651;BME280;61944;52.538;6.108;2023-02-01T13:54:32;101476.63;;;6.65;100.00
73651;BME280;61944;52.538;6.108;2023-02-01T13:57:00;101472.72;;;6.57;100.00
73651;BME280;61944;52.538;6.108;2023-02-01T14:05:55;101481.75;;;6.54;100.00
73651;BME280;61944;52.538;6.108;2023-02-01T14:08:11;101491.88;;;6.59;100.00
73651;BME280;61944;52.538;6.108;2023-02-01T14:10:57;101494.44;;;6.64;100.00
73651;BME280;61944;52.538;6.108;2023-02-01T14:13:40;101478.72;;;6.68;100.00
73651;BME280;61944;52.538;6.108;2023-02-01T14:24:01;101495.34;;;6.77;100.00
73651;BME280;61944;52.538;6.108;2023-02-01T14:26:40;101492.56;;;6.77;100.00
73651;BME280;61944;52.538;6.108;2023-02-01T14:29:21;101498.13;;;6.77;100.00
73651;BME280;61944;52.538;6.108;2023-02-01T15:03:47;101527.59;;;6.78;100.00
73651;BME280;61944;52.538;6.108;2023-02-01T15:06:38;101518.78;;;6.76;100.00
73651;BME280;61944;52.538;6.108;2023-02-01T15:14:21;101544.28;;;6.78;100.00
73651;BME280;61944;52.538;6.108;2023-02-01T15:16:47;101524.00;;;6.77;100.00
73651;BME280;61944;52.538;6.108;2023-02-01T15:19:22;101533.97;;;6.78;100.00
73651;BME280;61944;52.538;6.108;2023-02-01T15:21:50;101546.06;;;6.82;100.00
73651;BME280;61944;52.538;6.108;2023-02-01T15:26:45;101541.50;;;6.78;100.00
73651;BME280;61944;52.538;6.108;2023-02-01T15:29:13;101550.53;;;6.75;100.00
73651;BME280;61944;52.538;6.108;2023-02-01T15:31:44;101553.44;;;6.78;100.00
73651;BME280;61944;52.538;6.108;2023-02-01T15:34:10;101541.72;;;6.72;100.00
73651;BME280;61944;52.538;6.108;2023-02-01T15:36:36;101551.88;;;6.68;100.00
73651;BME280;61944;52.538;6.108;2023-02-01T15:39:24;101551.03;;;6.68;100.00
73651;BME280;61944;52.538;6.108;2023-02-01T15:42:00;101562.03;;;6.64;100.00
73651;BME280;61944;52.538;6.108;2023-02-01T15:44:39;101557.81;;;6.58;100.00
73651;BME280;61944;52.538;6.108;2023-02-01T15:47:29;101564.34;;;6.62;100.00
73651;BME280;61944;52.538;6.108;2023-02-01T15:49:56;101549.28;;;6.63;100.00
73651;BME280;61944;52.538;6.108;2023-02-01T15:52:32;101565.31;;;6.66;100.00
73651;BME280;61944;52.538;6.108;2023-02-01T15:55:02;101570.56;;;6.59;100.00
73651;BME280;61944;52.538;6.108;2023-02-01T15:57:32;101560.13;;;6.56;100.00
73651;BME280;61944;52.538;6.108;2023-02-01T16:00:06;101563.38;;;6.58;100.00
73651;BME280;61944;52.538;6.108;2023-02-01T16:05:06;101576.94;;;6.60;100.00
73651;BME280;61944;52.538;6.108;2023-02-01T16:07:57;101569.13;;;6.53;100.00